This is the latest recevied weather packets stored in our database for station/object DO1YM-13. If no packets are shown the sender has not sent any weather packets the latest 10 day(s).
| Time | Temp. | Humidity | Pressure | Rain* | Wind** | Luminosity | Snow |
|---|---|---|---|---|---|---|---|
| 1787574947 | 19.44° C | 61% | 1018.6 hPa | 0 mm | - | 54 W/m² | - |
| 1787574649 | 19.44° C | 60% | 1018.6 hPa | 0 mm | - | 65 W/m² | - |
| 1787574355 | 20.56° C | 57% | 1018.3 hPa | 0 mm | - | 60 W/m² | - |
| 1787574048 | 20.56° C | 59% | 1018.6 hPa | 0 mm | - | 90 W/m² | - |
| 1787573749 | 20.56° C | 62% | 1018.3 hPa | 0 mm | - | 76 W/m² | - |
| 1787573447 | 20° C | 61% | 1018.6 hPa | 0 mm | - | 80 W/m² | - |
| 1787573149 | 19.44° C | 66% | 1018.6 hPa | 0 mm | - | 103 W/m² | - |
| 1787572847 | 19.44° C | 67% | 1018.6 hPa | 0 mm | - | 257 W/m² | - |
| 1787572547 | 19.44° C | 66% | 1018.6 hPa | 0 mm | - | 225 W/m² | - |
| 1787572248 | 19.44° C | 66% | 1019 hPa | 0 mm | - | 182 W/m² | - |
| 1787571949 | 19.44° C | 66% | 1018.6 hPa | 0 mm | - | 164 W/m² | - |
| 1787571650 | 20° C | 64% | 1019 hPa | 0 mm | - | 239 W/m² | - |
| 1787571348 | 20° C | 63% | 1019 hPa | 0 mm | - | 281 W/m² | - |
| 1787571050 | 20° C | 62% | 1019 hPa | 0 mm | - | 218 W/m² | - |
| 1787570747 | 19.44° C | 63% | 1019 hPa | 0 mm | - | 357 W/m² | - |
| 1787570448 | 18.89° C | 69% | 1018.6 hPa | 0 mm | - | 385 W/m² | - |
| 1787570148 | 18.89° C | 69% | 1018.6 hPa | 0 mm | - | 152 W/m² | - |
| 1787569849 | 18.89° C | 67% | 1018.6 hPa | 0 mm | - | 339 W/m² | - |
| 1787569548 | 18.33° C | 70% | 1018.6 hPa | 0 mm | - | 616 W/m² | - |
| 1787569249 | 18.89° C | 70% | 1018.6 hPa | 0 mm | - | 207 W/m² | - |
| 1787568947 | 18.89° C | 69% | 1018.6 hPa | 0 mm | - | 211 W/m² | - |
| 1787568650 | 18.89° C | 67% | 1019 hPa | 0 mm | - | 257 W/m² | - |
| 1787568349 | 18.89° C | 69% | 1019 hPa | 0 mm | - | 673 W/m² | - |
| 1787568047 | 18.33° C | 70% | 1018.6 hPa | 0 mm | - | 279 W/m² | - |
| 1787567748 | 18.33° C | 70% | 1018.6 hPa | 0 mm | - | 316 W/m² | - |
* Rain latest hour (hover to see other rain measurements)
** Current wind speed in m/s (hover to see current wind gust speed)